createdAt,value
2023-05-12T00:00:35.938Z,100417.60
2023-05-12T00:03:14.201Z,100419.00
2023-05-12T00:05:42.917Z,100420.00
2023-05-12T00:08:11.845Z,100419.00
2023-05-12T00:10:40.580Z,100417.40
2023-05-12T00:13:09.457Z,100416.00
2023-05-12T00:15:38.319Z,100416.80
2023-05-12T00:18:07.147Z,100412.20
2023-05-12T00:20:36.151Z,100410.60
2023-05-12T00:23:04.712Z,100412.80
2023-05-12T00:25:33.340Z,100412.60
2023-05-12T00:28:02.149Z,100409.00
2023-05-12T00:30:30.865Z,100404.60
2023-05-12T00:32:59.519Z,100406.20
2023-05-12T00:35:28.364Z,100405.40
2023-05-12T00:37:56.912Z,100408.40
2023-05-12T00:40:25.570Z,100407.80
2023-05-12T00:42:54.401Z,100410.40
2023-05-12T00:45:23.241Z,100413.00
2023-05-12T00:47:52.437Z,100414.60
2023-05-12T00:50:21.815Z,100413.60
2023-05-12T00:52:50.702Z,100415.00
2023-05-12T00:55:19.547Z,100414.00
2023-05-12T00:57:48.197Z,100416.80
2023-05-12T01:00:19.080Z,100416.40
2023-05-12T01:02:49.366Z,100413.80
2023-05-12T01:05:18.168Z,100418.00
2023-05-12T01:07:48.381Z,100420.40
2023-05-12T01:10:21.104Z,100418.40
2023-05-12T01:12:50.198Z,100422.20
2023-05-12T01:15:19.707Z,100423.80
2023-05-12T01:17:53.148Z,100430.80
2023-05-12T01:20:22.827Z,100429.20
2023-05-12T01:22:52.476Z,100432.80
2023-05-12T01:25:22.416Z,100430.40
2023-05-12T01:27:51.779Z,100425.00
2023-05-12T01:30:21.384Z,100425.20
2023-05-12T01:32:50.570Z,100423.80
2023-05-12T01:35:19.461Z,100428.20
2023-05-12T01:37:57.879Z,100434.80
2023-05-12T01:40:26.566Z,100436.00
2023-05-12T01:42:55.780Z,100434.00
2023-05-12T01:45:24.612Z,100432.00
2023-05-12T01:47:54.501Z,100435.00
2023-05-12T01:50:23.029Z,100435.40
2023-05-12T01:52:51.653Z,100436.00
2023-05-12T01:55:21.752Z,100438.80
2023-05-12T01:57:58.595Z,100434.80
2023-05-12T02:00:27.192Z,100434.40
2023-05-12T02:02:56.025Z,100431.80
2023-05-12T02:05:24.841Z,100438.60
2023-05-12T02:07:53.784Z,100438.20
2023-05-12T02:10:22.467Z,100437.20
2023-05-12T02:12:51.258Z,100439.80
2023-05-12T02:15:20.092Z,100439.80
2023-05-12T02:17:49.837Z,100440.20
2023-05-12T02:20:19.185Z,100437.00
2023-05-12T02:22:48.213Z,100444.40
2023-05-12T02:25:16.989Z,100442.80
2023-05-12T02:27:46.204Z,100444.60
2023-05-12T02:30:15.184Z,100442.20
2023-05-12T02:32:43.891Z,100439.20
2023-05-12T02:35:18.314Z,100442.00
2023-05-12T02:37:47.176Z,100442.20
2023-05-12T02:40:16.388Z,100448.80
2023-05-12T02:42:45.075Z,100449.80
2023-05-12T02:45:14.214Z,100446.60
2023-05-12T02:47:42.806Z,100450.60
2023-05-12T02:50:11.817Z,100452.00
2023-05-12T02:52:40.312Z,100452.60
2023-05-12T02:55:10.005Z,100462.40
2023-05-12T02:57:39.238Z,100455.60
2023-05-12T03:00:10.132Z,100456.20
2023-05-12T03:02:40.697Z,100453.60
2023-05-12T03:05:10.342Z,100451.60
2023-05-12T03:07:39.406Z,100456.80
2023-05-12T03:10:09.961Z,100457.60
2023-05-12T03:12:38.597Z,100458.40
2023-05-12T03:15:08.875Z,100461.00
2023-05-12T03:17:37.949Z,100459.20
2023-05-12T03:20:08.565Z,100460.80
2023-05-12T03:22:38.456Z,100461.40
2023-05-12T03:25:09.700Z,100459.60
2023-05-12T03:27:38.309Z,100464.20
2023-05-12T03:30:09.166Z,100466.80
2023-05-12T03:32:39.253Z,100465.40
2023-05-12T03:35:10.569Z,100465.00
2023-05-12T03:37:39.391Z,100468.60
2023-05-12T03:40:10.999Z,100466.00
2023-05-12T03:42:39.547Z,100464.60
2023-05-12T03:45:11.227Z,100467.60
2023-05-12T03:47:40.473Z,100470.20
2023-05-12T03:50:10.797Z,100474.00
2023-05-12T03:52:41.231Z,100473.60
2023-05-12T03:55:10.579Z,100476.80
2023-05-12T03:57:39.308Z,100478.00
2023-05-12T04:00:09.870Z,100482.60
2023-05-12T04:02:47.815Z,100483.80
2023-05-12T04:05:16.787Z,100480.20
2023-05-12T04:07:45.473Z,100486.00
2023-05-12T04:10:14.053Z,100486.80
2023-05-12T04:12:42.746Z,100484.60
2023-05-12T04:15:14.181Z,100482.60
2023-05-12T04:17:42.829Z,100492.00
2023-05-12T04:20:12.522Z,100488.80
2023-05-12T04:22:41.305Z,100485.80
2023-05-12T04:25:10.937Z,100492.40
2023-05-12T04:27:40.900Z,100489.00
2023-05-12T04:30:11.363Z,100498.20
2023-05-12T04:32:41.535Z,100502.20
2023-05-12T04:35:10.829Z,100497.40
2023-05-12T04:37:40.267Z,100498.00
2023-05-12T04:40:10.386Z,100496.40
2023-05-12T04:42:39.086Z,100497.40
2023-05-12T04:45:10.881Z,100506.00
2023-05-12T04:47:40.381Z,100502.20
2023-05-12T04:50:10.633Z,100498.40
2023-05-12T04:52:39.440Z,100499.20
2023-05-12T04:55:09.515Z,100499.60
2023-05-12T04:57:40.681Z,100506.00
2023-05-12T05:00:12.277Z,100511.80
2023-05-12T05:02:41.498Z,100509.00
2023-05-12T05:05:11.378Z,100510.00
2023-05-12T05:07:39.946Z,100513.60
2023-05-12T05:10:10.609Z,100508.80
2023-05-12T05:12:40.476Z,100513.40
2023-05-12T05:15:11.161Z,100508.00
2023-05-12T05:17:40.246Z,100510.80
2023-05-12T05:20:12.229Z,100514.60
2023-05-12T05:22:43.829Z,100509.80
2023-05-12T05:25:13.691Z,100516.00
2023-05-12T05:27:42.406Z,100514.80
2023-05-12T05:30:11.882Z,100518.60
2023-05-12T05:32:42.170Z,100514.20
2023-05-12T05:35:11.659Z,100514.40
2023-05-12T05:37:44.574Z,100506.80
2023-05-12T05:40:13.754Z,100506.20
2023-05-12T05:42:42.553Z,100506.80
2023-05-12T05:45:12.635Z,100510.80
2023-05-12T05:47:41.734Z,100510.40
2023-05-12T05:50:11.878Z,100512.40
2023-05-12T05:52:43.140Z,100515.60
2023-05-12T05:55:12.032Z,100511.80
2023-05-12T05:57:41.058Z,100517.00
2023-05-12T06:00:12.091Z,100517.20
2023-05-12T06:02:45.382Z,100522.00
2023-05-12T06:05:17.513Z,100523.00
2023-05-12T06:07:46.333Z,100522.40
2023-05-12T06:10:15.102Z,100521.00
2023-05-12T06:12:43.779Z,100520.60
2023-05-12T06:15:12.601Z,100524.40
2023-05-12T06:17:41.227Z,100527.80
2023-05-12T06:20:12.777Z,100521.80
2023-05-12T06:22:42.046Z,100520.80
2023-05-12T06:25:12.038Z,100529.00
2023-05-12T06:27:40.842Z,100523.00
2023-05-12T06:30:12.563Z,100522.80
2023-05-12T06:32:43.006Z,100526.20
2023-05-12T06:35:11.908Z,100526.40
2023-05-12T06:37:40.567Z,100527.80
2023-05-12T06:40:10.585Z,100529.40
2023-05-12T06:42:39.286Z,100531.00
2023-05-12T06:45:12.519Z,100526.00
2023-05-12T06:47:41.499Z,100528.80
2023-05-12T06:50:11.207Z,100528.40
2023-05-12T06:52:39.896Z,100528.80
2023-05-12T06:55:09.719Z,100526.60
2023-05-12T06:57:38.380Z,100522.40
2023-05-12T07:00:10.191Z,100525.00
2023-05-12T07:02:39.149Z,100528.40
2023-05-12T07:05:09.113Z,100522.00
2023-05-12T07:07:37.812Z,100524.80
2023-05-12T07:10:09.024Z,100521.80
2023-05-12T07:12:37.984Z,100521.40
2023-05-12T07:15:12.483Z,100518.20
2023-05-12T07:17:41.193Z,100522.00
2023-05-12T07:20:11.551Z,100516.80
2023-05-12T07:22:40.132Z,100516.40
2023-05-12T07:25:10.360Z,100514.20
2023-05-12T07:27:39.065Z,100521.80
2023-05-12T07:30:10.362Z,100520.40
2023-05-12T07:32:39.032Z,100528.20
2023-05-12T07:35:10.037Z,100523.00
2023-05-12T07:37:38.722Z,100522.40
2023-05-12T07:40:09.104Z,100523.00
2023-05-12T07:42:37.720Z,100516.60
2023-05-12T07:45:07.799Z,100523.00
2023-05-12T07:47:36.428Z,100518.60
2023-05-12T07:50:06.562Z,100520.60
2023-05-12T07:52:35.297Z,100523.40
2023-05-12T07:55:04.003Z,100518.20
2023-05-12T07:57:32.626Z,100520.40
2023-05-12T08:00:01.285Z,100522.40
2023-05-12T08:02:30.091Z,100520.00
2023-05-12T08:04:58.679Z,100525.20
2023-05-12T08:07:27.584Z,100521.40
2023-05-12T08:09:56.189Z,100524.40
2023-05-12T08:12:24.864Z,100517.60
2023-05-12T08:14:53.583Z,100527.40
2023-05-12T08:17:22.119Z,100522.20
2023-05-12T08:19:50.656Z,100517.00
2023-05-12T08:22:19.519Z,100525.40
2023-05-12T08:24:48.150Z,100516.40
2023-05-12T08:27:16.919Z,100522.40
2023-05-12T08:29:45.641Z,100518.00
2023-05-12T08:32:14.624Z,100523.00
2023-05-12T08:34:43.393Z,100526.00
2023-05-12T08:37:12.429Z,100519.00
2023-05-12T08:39:41.193Z,100519.20
2023-05-12T08:42:18.708Z,100517.40
2023-05-12T08:44:47.662Z,100528.40
2023-05-12T08:47:18.217Z,100528.60
2023-05-12T08:49:51.817Z,100525.80
2023-05-12T08:52:21.721Z,100530.60
2023-05-12T08:54:56.053Z,100528.80
2023-05-12T08:57:27.498Z,100523.20
2023-05-12T08:59:59.635Z,100520.00
2023-05-12T09:02:37.551Z,100521.80
2023-05-12T09:05:10.838Z,100520.80
2023-05-12T09:07:42.521Z,100524.60
2023-05-12T09:10:29.892Z,100529.80
2023-05-12T09:13:04.646Z,100528.20
2023-05-12T09:15:39.281Z,100524.00
2023-05-12T09:18:08.010Z,100518.40
2023-05-12T09:20:36.941Z,100521.40
2023-05-12T09:23:16.378Z,100509.60
2023-05-12T09:25:46.331Z,100525.20
2023-05-12T09:28:15.298Z,100520.00
2023-05-12T09:30:44.031Z,100518.80
2023-05-12T09:33:13.791Z,100518.00
2023-05-12T09:35:43.398Z,100509.60
2023-05-12T09:38:13.207Z,100519.60
2023-05-12T09:40:42.858Z,100516.60
2023-05-12T09:43:13.179Z,100520.00
2023-05-12T09:45:45.748Z,100518.20
2023-05-12T09:48:14.519Z,100515.80
2023-05-12T09:50:48.366Z,100516.00
2023-05-12T09:53:17.957Z,100506.40
2023-05-12T09:55:47.086Z,100510.60
2023-05-12T09:58:17.329Z,100511.80
2023-05-12T10:03:21.361Z,100508.20
2023-05-12T10:05:53.619Z,100517.80
2023-05-12T10:08:24.971Z,100515.60
2023-05-12T10:10:53.908Z,100506.00
2023-05-12T10:13:22.691Z,100504.00
2023-05-12T10:15:52.168Z,100510.20
2023-05-12T10:18:21.010Z,100497.40
2023-05-12T10:20:51.323Z,100501.60
2023-05-12T10:23:20.723Z,100498.80
2023-05-12T10:25:49.556Z,100493.40
2023-05-12T10:28:19.172Z,100496.60
2023-05-12T10:30:48.019Z,100495.20
2023-05-12T10:33:16.596Z,100501.20
2023-05-12T10:35:47.694Z,100503.40
2023-05-12T10:38:19.346Z,100503.00
2023-05-12T10:40:55.328Z,100498.00
2023-05-12T10:43:25.176Z,100500.00
2023-05-12T10:46:10.429Z,100500.40
2023-05-12T10:48:51.817Z,100497.20
2023-05-12T10:51:21.952Z,100498.40
2023-05-12T10:53:54.791Z,100500.20
2023-05-12T10:56:25.198Z,100494.40
2023-05-12T10:59:13.082Z,100496.60
2023-05-12T11:01:44.383Z,100488.60
2023-05-12T11:04:19.030Z,100497.00
2023-05-12T11:06:57.686Z,100490.60
2023-05-12T11:09:27.187Z,100496.80
2023-05-12T11:11:56.652Z,100501.60
2023-05-12T11:14:25.624Z,100493.40
2023-05-12T11:16:54.245Z,100497.80
2023-05-12T11:19:22.882Z,100499.00
2023-05-12T11:21:51.370Z,100493.20
2023-05-12T11:24:20.183Z,100509.00
2023-05-12T11:26:51.348Z,100491.00
2023-05-12T11:29:20.663Z,100498.20
2023-05-12T11:31:49.958Z,100494.40
2023-05-12T11:34:22.478Z,100494.40
2023-05-12T11:36:52.663Z,100495.20
2023-05-12T11:39:22.772Z,100497.40
2023-05-12T11:41:59.276Z,100499.20
2023-05-12T11:44:34.666Z,100505.80
2023-05-12T11:47:11.357Z,100509.40
2023-05-12T11:49:48.010Z,100509.80
2023-05-12T11:52:17.129Z,100495.40
2023-05-12T11:54:51.012Z,100498.60
2023-05-12T11:57:36.744Z,100493.80
2023-05-12T12:00:08.647Z,100514.60
2023-05-12T12:02:39.136Z,100500.20
2023-05-12T12:05:16.935Z,100513.40
2023-05-12T12:07:45.556Z,100508.00
2023-05-12T12:10:16.155Z,100508.60
2023-05-12T12:12:45.318Z,100512.40
2023-05-12T12:15:13.959Z,100504.80
2023-05-12T12:17:42.650Z,100506.80
2023-05-12T12:20:12.374Z,100508.00
2023-05-12T12:22:41.008Z,100512.20
2023-05-12T12:25:11.038Z,100505.40
2023-05-12T12:27:39.848Z,100504.80
2023-05-12T12:30:11.256Z,100508.00
2023-05-12T12:32:39.943Z,100505.60
2023-05-12T12:35:09.537Z,100512.20
2023-05-12T12:37:38.204Z,100505.20
2023-05-12T12:40:09.507Z,100496.20
2023-05-12T12:42:40.785Z,100505.60
2023-05-12T12:45:11.331Z,100501.60
2023-05-12T12:47:40.077Z,100497.00
2023-05-12T12:50:10.533Z,100497.00
2023-05-12T12:52:39.321Z,100501.60
2023-05-12T12:55:09.833Z,100495.00
2023-05-12T12:57:38.789Z,100495.60
2023-05-12T13:00:09.797Z,100501.40
2023-05-12T13:02:39.033Z,100506.60
2023-05-12T13:05:09.426Z,100504.20
2023-05-12T13:07:38.201Z,100500.00
2023-05-12T13:10:08.911Z,100507.80
2023-05-12T13:12:37.663Z,100501.20
2023-05-12T13:15:08.470Z,100505.80
2023-05-12T13:17:37.192Z,100502.40
2023-05-12T13:20:08.615Z,100500.20
2023-05-12T13:22:37.330Z,100497.40
2023-05-12T13:25:07.522Z,100492.80
2023-05-12T13:27:36.409Z,100484.20
2023-05-12T13:30:07.166Z,100486.00
2023-05-12T13:32:35.840Z,100498.40
2023-05-12T13:35:05.409Z,100495.20
2023-05-12T13:37:34.152Z,100496.40
2023-05-12T13:40:02.884Z,100493.60
2023-05-12T13:42:31.993Z,100488.80
2023-05-12T13:45:00.923Z,100485.40
2023-05-12T13:47:29.487Z,100482.40
2023-05-12T13:49:58.139Z,100483.40
2023-05-12T13:52:27.080Z,100491.80
2023-05-12T13:54:55.793Z,100485.20
2023-05-12T13:57:24.655Z,100484.60
2023-05-12T13:59:54.385Z,100486.00
2023-05-12T14:02:23.159Z,100482.40
2023-05-12T14:04:51.937Z,100483.80
2023-05-12T14:07:20.656Z,100482.20
2023-05-12T14:09:49.413Z,100485.20
2023-05-12T14:12:18.031Z,100484.40
2023-05-12T14:14:49.423Z,100476.40
2023-05-12T14:17:21.433Z,100480.40
2023-05-12T14:19:50.079Z,100484.20
2023-05-12T14:22:26.430Z,100489.80
2023-05-12T14:24:55.499Z,100488.00
2023-05-12T14:27:24.749Z,100498.40
2023-05-12T14:29:53.493Z,100492.20
2023-05-12T14:32:22.159Z,100496.60
2023-05-12T14:34:50.879Z,100496.20
2023-05-12T14:37:19.563Z,100494.60
2023-05-12T14:39:48.262Z,100490.20
2023-05-12T14:42:17.452Z,100486.20
2023-05-12T14:44:46.555Z,100487.40
2023-05-12T14:47:15.216Z,100485.00
2023-05-12T14:49:45.634Z,100488.80
2023-05-12T14:52:15.303Z,100489.60
2023-05-12T14:54:44.254Z,100491.20
2023-05-12T14:57:13.049Z,100489.20
2023-05-12T14:59:41.671Z,100489.20
2023-05-12T15:02:10.266Z,100494.00
2023-05-12T15:04:39.080Z,100493.40
2023-05-12T15:07:07.856Z,100487.00
2023-05-12T15:09:36.459Z,100491.60
2023-05-12T15:12:05.853Z,100492.00
2023-05-12T15:14:34.901Z,100489.60
2023-05-12T15:17:03.801Z,100488.40
2023-05-12T15:19:32.555Z,100486.00
2023-05-12T15:22:01.389Z,100492.60
2023-05-12T15:24:30.106Z,100487.20
2023-05-12T15:26:58.794Z,100490.20
2023-05-12T15:29:27.444Z,100492.40
2023-05-12T15:31:56.304Z,100490.80
2023-05-12T15:34:25.020Z,100492.80
2023-05-12T15:36:53.757Z,100501.00
2023-05-12T15:39:23.350Z,100503.00
2023-05-12T15:41:52.589Z,100497.60
2023-05-12T15:44:21.274Z,100497.00
2023-05-12T15:46:50.708Z,100507.00
2023-05-12T15:49:19.845Z,100502.20
2023-05-12T15:51:48.460Z,100499.20
2023-05-12T15:54:17.955Z,100498.20
2023-05-12T15:56:48.910Z,100500.40
2023-05-12T15:59:17.633Z,100497.60
2023-05-12T16:01:46.283Z,100501.20
2023-05-12T16:04:15.043Z,100498.40
2023-05-12T16:06:43.759Z,100497.20
2023-05-12T16:09:13.220Z,100494.60
2023-05-12T16:11:42.112Z,100492.20
2023-05-12T16:14:10.737Z,100490.80
2023-05-12T16:16:42.497Z,100492.40
2023-05-12T16:19:11.253Z,100491.20
2023-05-12T16:21:39.984Z,100500.40
2023-05-12T16:24:09.350Z,100493.40
2023-05-12T16:26:38.323Z,100496.40
2023-05-12T16:29:06.952Z,100497.80
2023-05-12T16:31:36.073Z,100494.40
2023-05-12T16:34:04.867Z,100502.20
2023-05-12T16:36:33.567Z,100500.40
2023-05-12T16:39:02.466Z,100505.60
2023-05-12T16:41:31.290Z,100506.00
2023-05-12T16:44:00.309Z,100510.00
2023-05-12T16:46:29.360Z,100506.00
2023-05-12T16:48:58.161Z,100504.20
2023-05-12T16:51:29.939Z,100508.40
2023-05-12T16:53:58.967Z,100511.40
2023-05-12T16:56:27.869Z,100521.40
2023-05-12T16:58:56.480Z,100514.80
2023-05-12T17:01:25.416Z,100515.40
2023-05-12T17:03:54.145Z,100513.60
2023-05-12T17:06:22.702Z,100520.60
2023-05-12T17:08:51.332Z,100520.00
2023-05-12T17:11:20.374Z,100525.40
2023-05-12T17:13:49.184Z,100533.00
2023-05-12T17:16:17.942Z,100532.20
2023-05-12T17:21:18.350Z,100527.00
2023-05-12T17:23:47.124Z,100533.40
2023-05-12T17:26:16.591Z,100539.80
2023-05-12T17:28:46.104Z,100541.80
2023-05-12T17:31:14.850Z,100543.80
2023-05-12T17:33:43.511Z,100540.40
2023-05-12T17:36:13.360Z,100545.80
2023-05-12T17:38:43.329Z,100546.80
2023-05-12T17:41:12.129Z,100554.00
2023-05-12T17:43:44.637Z,100561.40
2023-05-12T17:46:13.726Z,100559.00
2023-05-12T17:48:42.458Z,100558.20
2023-05-12T17:51:11.048Z,100561.80
2023-05-12T17:53:39.853Z,100566.40
2023-05-12T17:56:08.660Z,100571.20
2023-05-12T17:58:37.230Z,100569.60
2023-05-12T18:01:06.213Z,100570.20
2023-05-12T18:03:36.301Z,100569.60
2023-05-12T18:06:05.661Z,100578.80
2023-05-12T18:08:34.339Z,100584.80
2023-05-12T18:11:02.971Z,100584.60
2023-05-12T18:13:31.808Z,100585.80
2023-05-12T18:16:00.596Z,100588.40
2023-05-12T18:18:29.604Z,100596.20
2023-05-12T18:20:59.090Z,100596.80
2023-05-12T18:23:27.981Z,100600.40
2023-05-12T18:25:56.554Z,100604.00
2023-05-12T18:28:25.262Z,100602.60
2023-05-12T18:30:56.173Z,100601.80
2023-05-12T18:33:26.906Z,100605.60
2023-05-12T18:35:55.508Z,100612.60
2023-05-12T18:38:24.301Z,100608.80
2023-05-12T18:40:52.904Z,100619.20
2023-05-12T18:43:21.465Z,100616.40
2023-05-12T18:45:51.463Z,100619.00
2023-05-12T18:48:20.193Z,100621.40
2023-05-12T18:50:49.016Z,100627.80
2023-05-12T18:53:17.829Z,100632.20
2023-05-12T18:55:47.643Z,100634.40
2023-05-12T18:58:16.396Z,100633.40
2023-05-12T19:00:45.251Z,100635.00
2023-05-12T19:03:14.071Z,100637.80
2023-05-12T19:05:43.941Z,100646.80
2023-05-12T19:08:12.888Z,100650.60
2023-05-12T19:10:41.724Z,100651.20
2023-05-12T19:13:11.426Z,100654.00
2023-05-12T19:15:40.221Z,100653.20
2023-05-12T19:18:09.125Z,100659.00
2023-05-12T19:20:38.306Z,100662.40
2023-05-12T19:23:07.121Z,100661.20
2023-05-12T19:25:35.973Z,100661.40
2023-05-12T19:28:05.573Z,100662.00
2023-05-12T19:30:35.010Z,100663.60
2023-05-12T19:33:03.946Z,100671.20
2023-05-12T19:35:34.003Z,100676.60
2023-05-12T19:38:02.688Z,100674.20
2023-05-12T19:40:31.987Z,100679.60
2023-05-12T19:43:01.436Z,100684.20
2023-05-12T19:45:30.202Z,100682.20
2023-05-12T19:47:59.022Z,100683.20
2023-05-12T19:50:28.069Z,100683.40
2023-05-12T19:52:57.098Z,100683.60
2023-05-12T19:55:25.829Z,100682.20
2023-05-12T19:57:54.557Z,100692.00
2023-05-12T20:00:25.247Z,100691.40
2023-05-12T20:02:53.904Z,100692.20
2023-05-12T20:05:22.825Z,100689.00
2023-05-12T20:07:51.743Z,100693.20
2023-05-12T20:10:20.466Z,100695.40
2023-05-12T20:12:49.111Z,100698.60
2023-05-12T20:15:17.986Z,100695.60
2023-05-12T20:17:46.628Z,100696.20
2023-05-12T20:20:15.506Z,100700.60
2023-05-12T20:22:44.298Z,100698.60
2023-05-12T20:25:15.602Z,100694.60
2023-05-12T20:27:45.030Z,100693.80
2023-05-12T20:30:15.091Z,100694.00
2023-05-12T20:32:43.853Z,100698.60
2023-05-12T20:35:12.860Z,100699.60
2023-05-12T20:37:41.699Z,100697.00
2023-05-12T20:40:11.872Z,100697.00
2023-05-12T20:42:41.016Z,100694.40
2023-05-12T20:45:11.067Z,100700.60
2023-05-12T20:47:39.894Z,100698.60
2023-05-12T20:50:11.359Z,100704.60
2023-05-12T20:52:40.724Z,100702.00
2023-05-12T20:55:10.237Z,100703.60
2023-05-12T20:57:39.605Z,100702.60
2023-05-12T21:00:10.997Z,100707.60
2023-05-12T21:02:40.263Z,100703.20
2023-05-12T21:05:09.776Z,100706.20
2023-05-12T21:07:38.442Z,100709.20
2023-05-12T21:10:08.692Z,100708.80
2023-05-12T21:12:37.260Z,100710.80
2023-05-12T21:15:09.306Z,100712.00
2023-05-12T21:17:38.890Z,100712.80
2023-05-12T21:20:11.112Z,100712.00
2023-05-12T21:22:41.947Z,100712.40
2023-05-12T21:25:11.203Z,100717.00
2023-05-12T21:27:40.321Z,100718.80
2023-05-12T21:30:10.874Z,100721.00
2023-05-12T21:32:39.685Z,100721.00
2023-05-12T21:35:09.097Z,100723.60
2023-05-12T21:37:37.711Z,100726.00
2023-05-12T21:40:08.762Z,100727.40
2023-05-12T21:42:37.493Z,100723.60
2023-05-12T21:45:08.400Z,100725.00
2023-05-12T21:47:37.182Z,100724.80
2023-05-12T21:50:06.822Z,100724.00
2023-05-12T21:52:35.451Z,100725.20
2023-05-12T21:55:04.652Z,100726.00
2023-05-12T21:57:33.458Z,100724.80
2023-05-12T22:00:03.527Z,100725.80
2023-05-12T22:02:38.167Z,100723.40
2023-05-12T22:05:08.556Z,100719.40
2023-05-12T22:07:37.107Z,100723.80
2023-05-12T22:10:06.994Z,100722.60
2023-05-12T22:12:36.246Z,100721.80
2023-05-12T22:15:06.338Z,100724.80
2023-05-12T22:17:35.010Z,100717.20
2023-05-12T22:20:05.009Z,100715.80
2023-05-12T22:22:33.954Z,100714.20
2023-05-12T22:25:03.952Z,100710.80
2023-05-12T22:27:32.602Z,100711.00
2023-05-12T22:30:01.190Z,100715.60
2023-05-12T22:32:29.996Z,100711.80
2023-05-12T22:34:58.618Z,100710.40
2023-05-12T22:37:27.215Z,100711.60
2023-05-12T22:39:55.905Z,100710.40
2023-05-12T22:42:24.531Z,100710.60
2023-05-12T22:44:53.231Z,100710.20
2023-05-12T22:47:21.863Z,100709.40
2023-05-12T22:49:50.503Z,100706.20
2023-05-12T22:52:19.248Z,100712.60
2023-05-12T22:54:47.903Z,100709.60
2023-05-12T22:57:16.475Z,100709.80
2023-05-12T22:59:45.078Z,100708.20
2023-05-12T23:02:13.892Z,100703.20
2023-05-12T23:04:42.540Z,100707.00
2023-05-12T23:07:11.170Z,100709.40
2023-05-12T23:09:39.907Z,100710.60
2023-05-12T23:12:09.669Z,100706.80
2023-05-12T23:14:38.353Z,100707.00
2023-05-12T23:17:07.198Z,100705.80
2023-05-12T23:19:36.524Z,100704.40
2023-05-12T23:22:05.709Z,100701.80
2023-05-12T23:24:35.699Z,100702.80
2023-05-12T23:27:04.824Z,100702.40
2023-05-12T23:29:33.978Z,100701.00
2023-05-12T23:32:02.853Z,100700.80
2023-05-12T23:34:31.680Z,100699.20
2023-05-12T23:37:00.310Z,100702.80
2023-05-12T23:39:28.851Z,100698.60
2023-05-12T23:41:57.610Z,100692.80
2023-05-12T23:44:26.300Z,100692.40
2023-05-12T23:46:55.149Z,100693.40
2023-05-12T23:49:23.912Z,100694.60
2023-05-12T23:51:52.475Z,100697.40
2023-05-12T23:54:20.995Z,100691.60
2023-05-12T23:56:49.602Z,100696.20
2023-05-12T23:59:18.174Z,100696.80
